Southern California Logo

Westlake, CA Single Family Real Estate Listings

143 Total Real Estate Listings * Click on table heading to sort
Date Posted Property Type Style Address Price Living Area Lot Size Price/Sq Ft.
2018-11-27 Single Family 2871 Instone Court Westlake, CA 91361 $439,000 924 sq. ft. 3,049 sq. ft. $475
2018-11-26 Single Family Traditional 1189 Stoneshead Court Westlake, CA 91361 $1,750,000 2,574 sq. ft. 24,394 sq. ft. $680
2018-11-26 Single Family 2406 Windward Circle Westlake, CA 91361 $1,384,000 1,960 sq. ft. 3,920 sq. ft. $706
2018-11-26 Single Family Spanish 4162 La Venta Drive Westlake, CA 91361 $2,850,000 3,755 sq. ft. 5,663 sq. ft. $759
2018-11-25 Single Family 3064 Foothill Drive Westlake, CA 91361 $849,999 1,557 sq. ft. 16,988 sq. ft. $546
2018-11-23 Single Family Contemporary 1135 Bright Glen Circle Westlake, CA 91361 $699,000 1,149 sq. ft. 6,098 sq. ft. $608
2018-11-22 Single Family French Country 1561 Sycamore Canyon Drive Westlake, CA 91361 $2,195,000 4,229 sq. ft. 23,522 sq. ft. $519
2018-11-21 Single Family Traditional 4201 Saddlecrest Lane Westlake, CA 91361 $1,650,000 3,797 sq. ft. 34,412 sq. ft. $435
2018-11-21 Single Family 973 Via Colinas Westlake, CA 91362 $539,000 1,332 sq. ft. 436 sq. ft. $405
2018-11-20 Single Family Ranch 3330 Meadow Oak Drive Westlake, CA 91361 $845,000 1,635 sq. ft. 249,599 sq. ft. $517
2018-11-19 Single Family Cape Cod; Traditional 31530 Germaine Lane Westlake, CA 91361 $999,999 3,176 sq. ft. 28,750 sq. ft. $315
2018-11-17 Single Family 1009 Via Colinas Westlake, CA 91362 $619,000 1,332 sq. ft. 436 sq. ft. $465
2018-11-17 Single Family 4128 Valley Spring Drive Westlake, CA 91362 $1,300,000 3,100 sq. ft. 20,038 sq. ft. $419
2018-11-16 Single Family Traditional 3304 Sawtooth Court Westlake, CA 91362 $899,900 2,434 sq. ft. 7,405 sq. ft. $370
2018-11-14 Single Family 31673 Foxfield Drive Westlake, CA 91361 $2,050,000 4,369 sq. ft. 29,185 sq. ft. $469
2018-11-12 Single Family 1188 Kirkford Way Westlake, CA 91361 $399,995 924 sq. ft. 3,049 sq. ft. $433
2018-11-12 Single Family 3901 Freshwind Circle Westlake, CA 91361 $3,699,500 3,500 sq. ft. 8,712 sq. ft. $1,057
2018-11-08 Single Family Other 1659 Bucksglen Court Westlake, CA 91361 $950,000 2,458 sq. ft. 14,375 sq. ft. $386
2018-11-07 Single Family 3254 Medicine Bow Court Westlake, CA 91362 $995,000 2,637 sq. ft. 7,841 sq. ft. $377
2018-11-06 Single Family 2002 Goldenrod Court Westlake, CA 91361 $1,250,000 2,378 sq. ft. 11,761 sq. ft. $526
2018-11-05 Single Family 1511 Pathfinder Avenue Westlake, CA 91362 $2,549,000 6,753 sq. ft. 29,621 sq. ft. $377
2018-11-02 Single Family Mediterranean 2480 Featherwood Street Westlake, CA 91362 $1,570,000 4,481 sq. ft. 10,890 sq. ft. $350
2018-11-02 Single Family 3505 Twin Lake Ridge Westlake, CA 91361 $1,769,000 3,502 sq. ft. 9,148 sq. ft. $505
2018-11-02 Single Family 1487 View Drive Westlake, CA 91362 $799,000 2,219 sq. ft. 1,307 sq. ft. $360
2018-11-02 Single Family 5777 Tanner Ridge Avenue Westlake, CA 91362 $849,500 1,949 sq. ft. 1,307 sq. ft. $436
2018-11-01 Single Family Calif Bungalow 1453 Cheswick Place Westlake, CA 91361 $1,037,720 2,458 sq. ft. 6,534 sq. ft. $422
2018-10-30 Single Family Mediterranean 3906 Fairbreeze Circle Westlake, CA 91361 $2,450,000 3,740 sq. ft. 6,098 sq. ft. $655
2018-10-30 Single Family 32369 Lake Pleasant Drive Westlake, CA 91361 $1,650,000 2,838 sq. ft. 13,504 sq. ft. $581
2018-10-29 Single Family Ranch 1872 Falling Star Avenue Westlake, CA 91362 $1,599,000 2,985 sq. ft. 39,640 sq. ft. $536
2018-10-29 Single Family Tuscan 1431 Redsail Circle Westlake, CA 91361 $2,475,000 3,414 sq. ft. 5,227 sq. ft. $725
2018-10-29 Single Family Mediterranean 851 Hartglen Avenue Westlake, CA 91361 $1,199,000 2,846 sq. ft. 8,276 sq. ft. $421
2018-10-26 Single Family 2636 Featherwood Street Westlake, CA 91362 $1,925,000 4,860 sq. ft. 14,810 sq. ft. $396
2018-10-26 Single Family Contemporary 32133 Sailview Lane Westlake, CA 91361 $1,125,000 2,076 sq. ft. 3,049 sq. ft. $542
2018-10-26 Single Family 2764 Lakewood Place Westlake, CA 91361 $775,000 1,231 sq. ft. 3,485 sq. ft. $630
2018-10-25 Single Family 31514 Foxfield Drive Westlake, CA 91361 $1,879,000 3,492 sq. ft. 20,909 sq. ft. $538
2018-10-24 Single Family Traditional 3107 Hillcrest Drive Westlake, CA 91362 $629,900 1,773 sq. ft. 871 sq. ft. $355
2018-10-22 Single Family Mediterranean; Traditional 3326 Sierra Drive Westlake, CA 91362 $894,000 2,490 sq. ft. 7,841 sq. ft. $359
2018-10-21 Single Family 2871 Instone Court Westlake, CA 91361 $445,000 924 sq. ft. 3,049 sq. ft. $482
2018-10-20 Single Family 1644 Glennon Court Westlake, CA 91361 $1,199,000 2,357 sq. ft. 10,890 sq. ft. $509
2018-10-19 Single Family 2095 Trentham Road Westlake, CA 91361 $5,990,000 9,200 sq. ft. 11,761 sq. ft. $651
2018-10-19 Single Family 907 Sandpiper Circle Westlake, CA 91361 $925,000 1,862 sq. ft. 7,405 sq. ft. $497
2018-10-19 Single Family 32128 Lake Meadow Lane Westlake, CA 91361 $899,999 1,581 sq. ft. 3,485 sq. ft. $569
2018-10-19 Single Family 2027 Waterside Circle Westlake, CA 91362 $1,995,000 5,790 sq. ft. 21,780 sq. ft. $345
2018-10-19 Single Family 2369 Topsail Circle Westlake, CA 91361 $1,125,000 1,641 sq. ft. 5,663 sq. ft. $686
2018-10-19 Single Family Contemporary 5341 Long Shadow Court Westlake, CA 91362 $1,925,000 4,050 sq. ft. 15,682 sq. ft. $475
2018-10-19 Single Family 1420 Kingsboro Court Westlake, CA 91362 $2,399,000 4,583 sq. ft. 20,473 sq. ft. $523
2018-10-16 Single Family 4210 Dan Wood Drive Westlake, CA 91362 $1,175,000 2,572 sq. ft. 1,742 sq. ft. $457
2018-10-15 Single Family 1625 Crown Ridge Court Westlake, CA 91362 $4,200,000 13,000 sq. ft. 87,120 sq. ft. $323
2018-10-12 Single Family Mediterranean 1233 Woodland Grove Court Westlake, CA 91362 $10,900,000 13,283 sq. ft. 191,228 sq. ft. $821
2018-10-11 Single Family Mediterranean 2075 Hathaway Avenue Westlake, CA 91362 $1,849,900 5,236 sq. ft. 18,731 sq. ft. $353
2018-10-11 Single Family Other 473 Lower Lake Road Westlake, CA 91361 $9,499,950 130,680 sq. ft.
2018-10-09 Single Family Traditional 3900 Freshwind Circle Westlake, CA 91361 $2,275,000 3,150 sq. ft. 8,712 sq. ft. $722
2018-10-09 Single Family Contemporary 5562 Ridgeway Court Westlake, CA 91362 $724,900 1,819 sq. ft. 871 sq. ft. $399
2018-10-08 Single Family 5623 Hidden Glen Court Westlake, CA 91362 $1,655,000 2,824 sq. ft. 13,504 sq. ft. $586
2018-10-08 Single Family Traditional 4639 Rayburn Street Westlake, CA 91362 $1,250,000 3,096 sq. ft. 11,326 sq. ft. $404
2018-10-08 Single Family 1695 Mesa Ridge Avenue Westlake, CA 91362 $2,100,000 4,943 sq. ft. 20,038 sq. ft. $425
2018-10-05 Single Family 1047 Twinfoot Court Westlake, CA 91361 $964,000 2,614 sq. ft. 6,534 sq. ft. $369
2018-10-05 Single Family Traditional 855 Hartglen Avenue Westlake, CA 91361 $1,350,000 3,050 sq. ft. 8,712 sq. ft. $443
2018-10-05 Single Family 5657 Tanner Ridge Avenue Westlake, CA 91362 $874,999 1,949 sq. ft. 1,307 sq. ft. $449
2018-10-05 Single Family 1152 Stoneshead Court Westlake, CA 91361 $1,300,000 2,396 sq. ft. 14,375 sq. ft. $543
2018-10-01 Single Family Traditional 3251 Sierra Drive Westlake, CA 91362 $939,000 2,490 sq. ft. 7,405 sq. ft. $377
2018-09-29 Single Family Contemporary 4647 Club View Drive Westlake, CA 91362 $799,000 1,942 sq. ft. 1,307 sq. ft. $411
2018-09-28 Single Family 764 Via Colinas Westlake, CA 91362 $569,000 1,435 sq. ft. 871 sq. ft. $397
2018-09-28 Single Family Mediterranean 1848 Falling Star Avenue Westlake, CA 91362 $2,445,000 4,405 sq. ft. 74,923 sq. ft. $555
2018-09-27 Single Family 90 Sherwood Drive Westlake, CA 91361 $535,000 1,488 sq. ft. 3,920 sq. ft. $360
2018-09-25 Single Family 2117 Basswood Court Westlake, CA 91361 $968,000 1,858 sq. ft. 9,148 sq. ft. $521
2018-09-25 Single Family 1170 Westlake Boulevard Westlake, CA 91361 $619,000 1,829 sq. ft. 3,920 sq. ft. $338
2018-09-25 Single Family 2961 Sierra Drive Westlake, CA 91362 $844,900 1,965 sq. ft. 7,405 sq. ft. $430
2018-09-25 Single Family 130 Lower Lake Road Westlake, CA 91361 $2,395,000 2,024 sq. ft. 10,019 sq. ft. $1,183
2018-09-25 Single Family 1152 Westlake Boulevard Westlake, CA 91361 $782,000 1,750 sq. ft. 3,920 sq. ft. $447
2018-09-21 Single Family 2773 Rainfield Avenue Westlake, CA 91362 $2,200,000 4,007 sq. ft. 14,375 sq. ft. $549
2018-09-21 Single Family Tuscan; Villa 4787 Windhaven Drive Westlake, CA 91362 $12,995,000 16,702 sq. ft. 207,781 sq. ft. $778
2018-09-21 Single Family 1793 Saint Andrews Place Westlake, CA 91362 $1,050,000 2,140 sq. ft. 9,148 sq. ft. $491
2018-09-19 Single Family 779 Cedar Point Place Westlake, CA 91362 $1,095,000 2,463 sq. ft. 8,276 sq. ft. $445
2018-09-19 Single Family 720 Via Colinas Westlake, CA 91362 $569,900 1,332 sq. ft. 871 sq. ft. $428
2018-09-19 Single Family Ranch 31701 Foxfield Drive Westlake, CA 91361 $2,100,000 3,651 sq. ft. 25,700 sq. ft. $575
2018-09-18 Single Family 31857 Saddletree Drive Westlake, CA 91361 $1,899,950 5,143 sq. ft. 15,682 sq. ft. $369
2018-09-18 Single Family Mediterranean 1090 Vista Ridge Lane Westlake, CA 91362 $5,995,000 9,890 sq. ft. 137,650 sq. ft. $606
2018-09-18 Single Family 949 Brook Meadow Court Westlake, CA 91362 $5,450,000 8,239 sq. ft. 91,476 sq. ft. $661
2018-09-17 Single Family Cape Cod 4531 Tam Oshanter Drive Westlake, CA 91362 $1,098,000 2,906 sq. ft. 7,405 sq. ft. $378
2018-09-15 Single Family 724 Valley Drive Westlake, CA 91362 $749,900 1,949 sq. ft. $385
2018-09-15 Single Family 31930 Foxfield Drive Westlake, CA 91361 $1,399,000 3,977 sq. ft. 20,038 sq. ft. $352
2018-09-14 Single Family 4177 Dan Wood Drive Westlake, CA 91362 $1,025,000 2,572 sq. ft. 1,742 sq. ft. $399
2018-09-14 Single Family Traditional 894 Hartglen Avenue Westlake, CA 91361 $1,899,000 2,282 sq. ft. 6,534 sq. ft. $832
2018-09-12 Single Family Contemporary 1152 Westlake Boulevard Westlake, CA 91361 $725,000 1,809 sq. ft. 3,920 sq. ft. $401
2018-09-12 Single Family 86 Archery Way Westlake, CA 91361 $415,000 1,040 sq. ft. 3,485 sq. ft. $399
2018-09-10 Single Family 1365 Pathfinder Avenue Westlake, CA 91362 $2,375,000 5,155 sq. ft. 23,522 sq. ft. $461
2018-09-10 Single Family Mediterranean; Spanish 1683 Shetland Place Westlake, CA 91362 $2,850,000 6,502 sq. ft. 20,038 sq. ft. $438
2018-09-08 Single Family 1212 Westlake Boulevard Westlake, CA 91361 $549,500 1,600 sq. ft. 3,920 sq. ft. $343
2018-09-08 Single Family Tudor 4196 Summit Ridge Court Westlake, CA 91362 $1,699,000 3,585 sq. ft. 124,582 sq. ft. $474
2018-09-07 Single Family Traditional 5669 Tanner Ridge Avenue Westlake, CA 91362 $849,999 1,949 sq. ft. 1,307 sq. ft. $436
2018-09-07 Single Family Patio Home 1032 Cherry Creek Circle Westlake, CA 91362 $750,000 2,057 sq. ft. 1,307 sq. ft. $365
2018-09-05 Single Family Traditional 31828 Saddletree Drive Westlake, CA 91361 $1,999,820 3,810 sq. ft. 19,166 sq. ft. $525
2018-09-05 Single Family 1463 View Drive Westlake, CA 91362 $689,000 1,804 sq. ft. 1,307 sq. ft. $382
2018-09-04 Single Family 1694 Trafalgar Place Westlake, CA 91361 $1,109,000 2,424 sq. ft. 7,841 sq. ft. $458
2018-09-04 Single Family 32114 Harborview Lane Westlake, CA 91361 $969,900 1,300 sq. ft. 3,049 sq. ft. $746
2018-08-30 Single Family Contemporary 3089 Sierra Drive Westlake, CA 91362 $879,000 2,087 sq. ft. 7,405 sq. ft. $421
2018-08-24 Single Family 4299 Valley Spring Drive Westlake, CA 91362 $2,800,000 7,247 sq. ft. 23,087 sq. ft. $386
2018-08-23 Single Family 4354 Hunt Club Lane Westlake, CA 91361 $1,995,000 5,480 sq. ft. 28,314 sq. ft. $364
2018-08-23 Single Family Traditional 32116 Oakshore Drive Westlake, CA 91361 $3,000,000 4,765 sq. ft. 5,663 sq. ft. $630
2018-08-18 Single Family 1494 Caitlyn Circle Westlake, CA 91361 $2,200,000 4,492 sq. ft. 13,504 sq. ft. $490
2018-08-14 Single Family Contemporary 3931 Fairbreeze Circle Westlake, CA 91361 $2,095,000 2,924 sq. ft. 5,663 sq. ft. $716
2018-08-09 Single Family 1364 Caitlyn Circle Westlake, CA 91361 $2,100,000 4,259 sq. ft. 18,731 sq. ft. $493
2018-08-03 Single Family Contemporary 3823 Charthouse Circle Westlake, CA 91361 $1,999,000 2,874 sq. ft. 4,792 sq. ft. $696
2018-08-03 Single Family 1291 Bluesail Circle Westlake, CA 91361 $1,635,000 2,249 sq. ft. 4,792 sq. ft. $727
2018-07-31 Single Family 93 Sherwood Drive Westlake, CA 91361 $579,000 1,455 sq. ft. 4,792 sq. ft. $398
2018-07-30 Single Family Contemporary; Ranch 1658 Oldcastle Place Westlake, CA 91361 $879,000 1,879 sq. ft. 7,405 sq. ft. $468
2018-07-24 Single Family 5462 Edgecliff Circle Westlake, CA 91362 $1,895,000 3,820 sq. ft. 28,314 sq. ft. $496
2018-07-23 Single Family 3818 Mainsail Circle Westlake, CA 91361 $1,629,000 2,400 sq. ft. 5,227 sq. ft. $679
2018-07-23 Single Family Architectural; Contemporary 4009 Whitesail Circle Westlake, CA 91361 $2,400,000 3,306 sq. ft. 5,663 sq. ft. $726
2018-07-17 Single Family 835 Via Colinas Westlake, CA 91362 $589,000 1,332 sq. ft. 436 sq. ft. $442
2018-07-17 Single Family 4918 Floresta Court Westlake, CA 91362 $2,000,000 3,917 sq. ft. 20,909 sq. ft. $511
2018-07-17 Single Family 2227 Highgate Road Westlake, CA 91361 $1,200,000 2,823 sq. ft. 11,326 sq. ft. $425
2018-07-13 Single Family 2195 Kinross Court Westlake, CA 91361 $1,039,000 2,449 sq. ft. 10,454 sq. ft. $424
2018-07-13 Single Family 725 Cedar Point Place Westlake, CA 91362 $1,490,000 3,520 sq. ft. 9,583 sq. ft. $423
2018-07-12 Single Family Traditional 3922 Freshwind Circle Westlake, CA 91361 $2,186,000 3,567 sq. ft. 6,098 sq. ft. $613
2018-07-03 Single Family Mediterranean 1017 Westbend Road Westlake, CA 91362 $5,995,000 8,837 sq. ft. 60,984 sq. ft. $678
2018-07-02 Single Family Traditional 32214 Oakshore Drive Westlake, CA 91361 $3,290,000 3,762 sq. ft. 6,970 sq. ft. $875
2018-07-01 Single Family Traditional 1524 Windy Mountain Avenue Westlake, CA 91362 $2,099,000 7,400 sq. ft. 17,860 sq. ft. $284
2018-06-30 Single Family 2612 Yellowwood Drive Westlake, CA 91361 $1,399,000 4,258 sq. ft. 8,712 sq. ft. $329
2018-06-23 Single Family Spanish 5729 Stone Mountain Lane Westlake, CA 91362 $1,400,000 3,330 sq. ft. 15,682 sq. ft. $420
2018-06-22 Single Family French Country 31640 Saddletree Drive Westlake, CA 91361 $3,375,000 7,758 sq. ft. 39,640 sq. ft. $435
2018-06-22 Single Family 4400 Guildhall Court Westlake, CA 91361 $999,000 2,371 sq. ft. 6,098 sq. ft. $421
2018-06-22 Single Family 5145 Lakeview Canyon Road Westlake, CA 91362 $2,795,000 4,605 sq. ft. 35,284 sq. ft. $607
2018-06-21 Single Family Traditional 4201 Dan Wood Drive Westlake, CA 91362 $1,130,000 2,572 sq. ft. 1,742 sq. ft. $439
2018-06-14 Single Family Mediterranean Westlake, CA $3,695,000 7,556 sq. ft. 64,904 sq. ft. $489
2018-06-04 Single Family 3930 Freshwind Circle Westlake, CA 91361 $1,969,000 2,499 sq. ft. 6,098 sq. ft. $788
2018-06-02 Single Family 1008 Cherry Creek Circle Westlake, CA 91362 $775,000 1,819 sq. ft. 871 sq. ft. $426
2018-05-30 Single Family 1604 Camberwell Place Westlake, CA 91361 $1,049,000 2,835 sq. ft. 6,534 sq. ft. $370
2018-05-29 Single Family Ranch 4539 Valley Spring Drive Westlake, CA 91362 $1,699,000 4,537 sq. ft. 23,087 sq. ft. $374
2018-05-17 Single Family Contemporary; Mediterranean 1532 Covington Avenue Westlake, CA 91361 $1,011,000 2,305 sq. ft. 6,534 sq. ft. $439
2018-05-16 Single Family Traditional 5579 Grey Feather Court Westlake, CA 91362 $2,050,000 5,486 sq. ft. 20,473 sq. ft. $374
2018-05-07 Single Family Spanish 31573 Saddletree Drive Westlake, CA 91361 $2,999,900 6,551 sq. ft. 27,007 sq. ft. $458
2018-05-07 Single Family Contemporary 1476 Eastwind Circle Westlake, CA 91361 $1,720,000 2,621 sq. ft. 5,663 sq. ft. $656
2018-05-07 Single Family 4001 Mariner Circle Westlake, CA 91361 $1,460,000 2,551 sq. ft. 6,970 sq. ft. $572
2018-05-06 Single Family 1478 Kingston Circle Westlake, CA 91362 $1,900,000 4,735 sq. ft. 33,541 sq. ft. $401
2018-03-01 Single Family Mediterranean 955 Vista Ridge Lane Westlake, CA 91362 $8,900,000 15,835 sq. ft. 187,308 sq. ft. $562
2018-02-12 Single Family Mediterranean; Spanish 818 Rim Crest Drive Westlake, CA 91361 $1,298,000 2,915 sq. ft. 16,117 sq. ft. $445
2018-01-22 Single Family Mediterranean 1118 Country Valley Road Westlake, CA 91362 $4,395,000 6,869 sq. ft. 95,396 sq. ft. $640
2018-01-16 Single Family 3802 Charthouse Circle Westlake, CA 91361 $2,289,000 3,900 sq. ft. 6,970 sq. ft. $587
2018-01-16 Single Family French 3970 Victoria Lane Westlake, CA 91362 $85,000,000 50,255 sq. ft. 1,452,290 sq. ft. $1,691
2018-01-09 Single Family 3411 Woodburn Avenue Westlake, CA 91361 $3,750,000 7,977 sq. ft. 165,092 sq. ft. $470
2017-04-18 Single Family Traditional 2267 Westshore Lane Westlake, CA 91361 $1,769,000 2,051 sq. ft. 8,276 sq. ft. $863